Impacts METAR Board
IDs:

KBCE - Bryce Canyon Arpt, UT, US

Updated at: 0700 UTC 30 Oct 2020
Potential Impact None Slight Moderate High
Time 29/19Z 29/20Z 29/21Z 29/22Z 29/23Z 30/00Z 30/01Z 30/02Z 30/03Z 30/04Z 30/05Z 30/06Z 30/07Z
Temp54 56 57 58 57 54 44 33 31 27 23 27 27
Dewpt16 14 15 15 15 15 14 12 12 12 10 14 14
Altim30.37 30.34 30.33 30.32 30.31 30.31 30.32 30.34 30.35 30.36 30.37 30.37 30.36
VIS10 10 10 10 10 10 10 10 10 10 10 10 10
CIG-- -- -- -- -- -- -- -- -- -- -- -- --
CoverCLRCLRCLRCLRCLRCLRCLRCLRCLRCLRCLRCLRCLR
FltCatVFRVFRVFRVFRVFRVFRVFRVFRVFRVFRVFRVFRVFR
WX--------------------------
WDir001401301501601802402600260260270
WSpd3 6 8 9 8 7 5 4 5 0 5 7 9
WGst-- -- -- -- -- -- -- -- -- -- -- -- --
Raw hourly METARs
KBCE 291853Z AUTO VRB03KT 10SM CLR 12/M09 A3037 RMK AO2 SLP219 T01221089
KBCE 291953Z AUTO VRB06KT 10SM CLR 13/M10 A3034 RMK AO2 SLP222 T01331100
KBCE 292053Z AUTO 14008KT 10SM CLR 14/M09 A3033 RMK AO2 SLP215 T01391094 58016
KBCE 292153Z AUTO 13009KT 10SM CLR 14/M09 A3032 RMK AO2 SLP212 T01441094
KBCE 292253Z AUTO 15008KT 10SM CLR 14/M09 A3031 RMK AO2 SLP213 T01391094
KBCE 292353Z AUTO 16007KT 10SM CLR 12/M09 A3031 RMK AO2 SLP215 T01221094 10144 20122 56005
KBCE 300053Z AUTO 18005KT 10SM CLR 07/M10 A3032 RMK AO2 SLP237 T00671100
KBCE 300153Z AUTO 24004KT 10SM CLR 01/M11 A3034 RMK AO2 SLP267 T00061111
KBCE 300253Z AUTO 26005KT 10SM CLR M01/M11 A3035 RMK AO2 SLP262 T10061111 53013
KBCE 300353Z AUTO 00000KT 10SM CLR M03/M11 A3036 RMK AO2 SLP248 T10281111
KBCE 300453Z AUTO 26005KT 10SM CLR M05/M12 A3037 RMK AO2 SLP247 T10501122
KBCE 300553Z AUTO 26007KT 10SM CLR M03/M10 A3037 RMK AO2 SLPNO T10281100 10122 21056 51004
KBCE 300653Z AUTO 27009KT 10SM CLR M03/M10 A3036 RMK AO2 SLP225 T10281100 401441078



Page loaded:  07:59 UTC  |   12:59 AM Pacific  |   01:59 AM Mountain  |   02:59 AM Central  |   03:59 AM Eastern

 

ADVISORIES

FORECASTS

FORECASTS

OBSERVATIONS

USER TOOLS

ABOUT US